sensor_id;sensor_type;location;lat;lon;timestamp;temperature;humidity
14985;DHT22;7588;62.368;25.902;2023-07-02T00:01:42;11.30;99.90
14985;DHT22;7588;62.368;25.902;2023-07-02T00:04:08;11.40;99.90
14985;DHT22;7588;62.368;25.902;2023-07-02T00:06:34;11.40;99.90
14985;DHT22;7588;62.368;25.902;2023-07-02T00:09:11;11.50;99.90
14985;DHT22;7588;62.368;25.902;2023-07-02T00:11:41;11.50;99.90
14985;DHT22;7588;62.368;25.902;2023-07-02T00:14:08;11.40;99.90
14985;DHT22;7588;62.368;25.902;2023-07-02T00:16:43;11.50;99.90
14985;DHT22;7588;62.368;25.902;2023-07-02T00:19:10;11.50;99.90
14985;DHT22;7588;62.368;25.902;2023-07-02T00:21:35;11.50;99.90
14985;DHT22;7588;62.368;25.902;2023-07-02T00:24:02;11.50;99.90
14985;DHT22;7588;62.368;25.902;2023-07-02T00:26:28;11.50;99.90
14985;DHT22;7588;62.368;25.902;2023-07-02T00:28:55;11.50;99.90
14985;DHT22;7588;62.368;25.902;2023-07-02T00:31:21;11.50;99.90
14985;DHT22;7588;62.368;25.902;2023-07-02T00:33:48;11.50;99.90
14985;DHT22;7588;62.368;25.902;2023-07-02T00:36:14;11.40;99.90
14985;DHT22;7588;62.368;25.902;2023-07-02T00:38:45;11.40;99.90
14985;DHT22;7588;62.368;25.902;2023-07-02T00:41:12;11.40;99.90
14985;DHT22;7588;62.368;25.902;2023-07-02T00:43:38;11.30;99.90
14985;DHT22;7588;62.368;25.902;2023-07-02T00:46:16;11.30;99.90
14985;DHT22;7588;62.368;25.902;2023-07-02T00:48:50;11.20;99.90
14985;DHT22;7588;62.368;25.902;2023-07-02T00:51:18;11.20;99.90
14985;DHT22;7588;62.368;25.902;2023-07-02T00:53:45;11.10;99.90
14985;DHT22;7588;62.368;25.902;2023-07-02T00:56:11;11.10;99.90
14985;DHT22;7588;62.368;25.902;2023-07-02T00:58:42;11.10;99.90
14985;DHT22;7588;62.368;25.902;2023-07-02T01:01:18;11.10;99.90
14985;DHT22;7588;62.368;25.902;2023-07-02T01:06:30;11.00;99.90
14985;DHT22;7588;62.368;25.902;2023-07-02T01:08:58;10.90;99.90
14985;DHT22;7588;62.368;25.902;2023-07-02T01:11:32;10.90;99.90
14985;DHT22;7588;62.368;25.902;2023-07-02T01:14:05;10.90;99.90
14985;DHT22;7588;62.368;25.902;2023-07-02T01:16:33;10.90;99.90
14985;DHT22;7588;62.368;25.902;2023-07-02T01:19:04;11.00;99.90
14985;DHT22;7588;62.368;25.902;2023-07-02T01:21:34;11.00;99.90
14985;DHT22;7588;62.368;25.902;2023-07-02T01:24:00;11.00;99.90
14985;DHT22;7588;62.368;25.902;2023-07-02T01:26:33;11.10;99.90
14985;DHT22;7588;62.368;25.902;2023-07-02T01:29:20;11.10;99.90
14985;DHT22;7588;62.368;25.902;2023-07-02T01:31:46;11.10;99.90
14985;DHT22;7588;62.368;25.902;2023-07-02T01:34:12;11.20;99.90
14985;DHT22;7588;62.368;25.902;2023-07-02T01:36:38;11.20;99.90
14985;DHT22;7588;62.368;25.902;2023-07-02T01:39:04;11.30;99.90
14985;DHT22;7588;62.368;25.902;2023-07-02T01:41:43;11.30;99.90
14985;DHT22;7588;62.368;25.902;2023-07-02T01:44:09;11.30;99.90
14985;DHT22;7588;62.368;25.902;2023-07-02T01:46:36;11.30;99.90
14985;DHT22;7588;62.368;25.902;2023-07-02T01:49:01;11.30;99.90
14985;DHT22;7588;62.368;25.902;2023-07-02T01:51:27;11.30;99.90
14985;DHT22;7588;62.368;25.902;2023-07-02T01:53:53;11.30;99.90
14985;DHT22;7588;62.368;25.902;2023-07-02T01:56:18;11.30;99.90
14985;DHT22;7588;62.368;25.902;2023-07-02T01:58:44;11.30;99.90
14985;DHT22;7588;62.368;25.902;2023-07-02T02:01:10;11.30;99.90
14985;DHT22;7588;62.368;25.902;2023-07-02T02:03:36;11.40;99.90
14985;DHT22;7588;62.368;25.902;2023-07-02T02:06:01;11.40;99.90
14985;DHT22;7588;62.368;25.902;2023-07-02T02:08:27;11.40;99.90
14985;DHT22;7588;62.368;25.902;2023-07-02T02:10:52;11.50;99.90
14985;DHT22;7588;62.368;25.902;2023-07-02T02:13:18;11.50;99.90
14985;DHT22;7588;62.368;25.902;2023-07-02T02:15:44;11.50;99.90
14985;DHT22;7588;62.368;25.902;2023-07-02T02:18:09;11.50;99.90
14985;DHT22;7588;62.368;25.902;2023-07-02T02:20:35;11.50;99.90
14985;DHT22;7588;62.368;25.902;2023-07-02T02:23:01;11.60;99.90
14985;DHT22;7588;62.368;25.902;2023-07-02T02:25:27;11.60;99.90
14985;DHT22;7588;62.368;25.902;2023-07-02T02:27:53;11.60;99.90
14985;DHT22;7588;62.368;25.902;2023-07-02T02:30:19;11.60;99.90
14985;DHT22;7588;62.368;25.902;2023-07-02T02:32:44;11.60;99.90
14985;DHT22;7588;62.368;25.902;2023-07-02T02:35:10;11.60;99.90
14985;DHT22;7588;62.368;25.902;2023-07-02T02:37:38;11.60;99.90
14985;DHT22;7588;62.368;25.902;2023-07-02T02:40:06;11.60;99.90
14985;DHT22;7588;62.368;25.902;2023-07-02T02:42:32;11.60;99.90
14985;DHT22;7588;62.368;25.902;2023-07-02T02:44:58;11.60;99.90
14985;DHT22;7588;62.368;25.902;2023-07-02T02:47:23;11.60;99.90
14985;DHT22;7588;62.368;25.902;2023-07-02T02:49:49;11.60;99.90
14985;DHT22;7588;62.368;25.902;2023-07-02T02:52:15;11.70;99.90
14985;DHT22;7588;62.368;25.902;2023-07-02T02:54:40;11.70;99.90
14985;DHT22;7588;62.368;25.902;2023-07-02T02:57:06;11.70;99.90
14985;DHT22;7588;62.368;25.902;2023-07-02T02:59:32;11.80;99.90
14985;DHT22;7588;62.368;25.902;2023-07-02T03:01:57;11.90;99.90
14985;DHT22;7588;62.368;25.902;2023-07-02T03:04:23;11.90;99.90
14985;DHT22;7588;62.368;25.902;2023-07-02T03:06:50;11.90;99.90
14985;DHT22;7588;62.368;25.902;2023-07-02T03:09:17;12.00;99.90
14985;DHT22;7588;62.368;25.902;2023-07-02T03:11:43;11.90;99.90
14985;DHT22;7588;62.368;25.902;2023-07-02T03:14:09;12.00;99.90
14985;DHT22;7588;62.368;25.902;2023-07-02T03:16:34;12.00;99.90
14985;DHT22;7588;62.368;25.902;2023-07-02T03:19:00;12.00;99.90
14985;DHT22;7588;62.368;25.902;2023-07-02T03:21:26;11.90;99.90
14985;DHT22;7588;62.368;25.902;2023-07-02T03:23:51;12.00;99.90
14985;DHT22;7588;62.368;25.902;2023-07-02T03:26:17;12.00;99.90
14985;DHT22;7588;62.368;25.902;2023-07-02T03:28:45;12.00;99.90
14985;DHT22;7588;62.368;25.902;2023-07-02T03:31:10;12.00;99.90
14985;DHT22;7588;62.368;25.902;2023-07-02T03:33:36;12.00;99.90
14985;DHT22;7588;62.368;25.902;2023-07-02T03:36:02;12.10;99.90
14985;DHT22;7588;62.368;25.902;2023-07-02T03:38:27;12.10;99.90
14985;DHT22;7588;62.368;25.902;2023-07-02T03:40:53;12.20;99.90
14985;DHT22;7588;62.368;25.902;2023-07-02T03:43:19;12.20;99.90
14985;DHT22;7588;62.368;25.902;2023-07-02T03:45:45;12.20;99.90
14985;DHT22;7588;62.368;25.902;2023-07-02T03:48:10;12.20;99.90
14985;DHT22;7588;62.368;25.902;2023-07-02T03:50:36;12.20;99.90
14985;DHT22;7588;62.368;25.902;2023-07-02T03:53:01;12.20;99.90
14985;DHT22;7588;62.368;25.902;2023-07-02T03:55:27;12.20;99.90
14985;DHT22;7588;62.368;25.902;2023-07-02T03:57:53;12.20;99.90
14985;DHT22;7588;62.368;25.902;2023-07-02T04:00:19;12.20;99.90
14985;DHT22;7588;62.368;25.902;2023-07-02T04:02:45;12.20;99.90
14985;DHT22;7588;62.368;25.902;2023-07-02T04:05:10;12.30;99.90
14985;DHT22;7588;62.368;25.902;2023-07-02T04:07:36;12.30;99.90
14985;DHT22;7588;62.368;25.902;2023-07-02T04:10:02;12.30;99.90
14985;DHT22;7588;62.368;25.902;2023-07-02T04:12:28;12.30;99.90
14985;DHT22;7588;62.368;25.902;2023-07-02T04:14:54;12.40;99.90
14985;DHT22;7588;62.368;25.902;2023-07-02T04:17:20;12.40;99.90
14985;DHT22;7588;62.368;25.902;2023-07-02T04:19:45;12.40;99.90
14985;DHT22;7588;62.368;25.902;2023-07-02T04:22:11;12.40;99.90
14985;DHT22;7588;62.368;25.902;2023-07-02T04:24:36;12.50;99.90
14985;DHT22;7588;62.368;25.902;2023-07-02T04:27:02;12.50;99.90
14985;DHT22;7588;62.368;25.902;2023-07-02T04:29:28;12.50;99.90
14985;DHT22;7588;62.368;25.902;2023-07-02T04:31:54;12.60;99.90
14985;DHT22;7588;62.368;25.902;2023-07-02T04:34:19;12.70;99.90
14985;DHT22;7588;62.368;25.902;2023-07-02T04:36:47;12.70;99.90
14985;DHT22;7588;62.368;25.902;2023-07-02T04:39:12;12.80;99.90
14985;DHT22;7588;62.368;25.902;2023-07-02T04:41:38;12.90;99.90
14985;DHT22;7588;62.368;25.902;2023-07-02T04:44:04;12.90;99.90
14985;DHT22;7588;62.368;25.902;2023-07-02T04:46:30;12.90;99.90
14985;DHT22;7588;62.368;25.902;2023-07-02T04:48:55;13.00;99.90
14985;DHT22;7588;62.368;25.902;2023-07-02T04:51:21;13.00;99.90
14985;DHT22;7588;62.368;25.902;2023-07-02T04:53:47;13.00;99.90
14985;DHT22;7588;62.368;25.902;2023-07-02T04:56:12;13.00;99.90
14985;DHT22;7588;62.368;25.902;2023-07-02T04:58:38;13.00;99.90
14985;DHT22;7588;62.368;25.902;2023-07-02T05:01:04;13.00;99.90
14985;DHT22;7588;62.368;25.902;2023-07-02T05:03:30;13.10;99.90
14985;DHT22;7588;62.368;25.902;2023-07-02T05:05:56;13.10;99.90
14985;DHT22;7588;62.368;25.902;2023-07-02T05:08:22;13.20;99.90
14985;DHT22;7588;62.368;25.902;2023-07-02T05:10:47;13.20;99.90
14985;DHT22;7588;62.368;25.902;2023-07-02T05:13:13;13.20;99.90
14985;DHT22;7588;62.368;25.902;2023-07-02T05:15:39;13.30;99.90
14985;DHT22;7588;62.368;25.902;2023-07-02T05:18:05;13.30;99.90
14985;DHT22;7588;62.368;25.902;2023-07-02T05:20:32;13.40;99.90
14985;DHT22;7588;62.368;25.902;2023-07-02T05:22:57;13.50;99.90
14985;DHT22;7588;62.368;25.902;2023-07-02T05:25:23;13.50;99.90
14985;DHT22;7588;62.368;25.902;2023-07-02T05:27:49;13.60;99.90
14985;DHT22;7588;62.368;25.902;2023-07-02T05:30:15;13.60;99.90
14985;DHT22;7588;62.368;25.902;2023-07-02T05:32:40;13.70;99.90
14985;DHT22;7588;62.368;25.902;2023-07-02T05:35:06;13.80;99.90
14985;DHT22;7588;62.368;25.902;2023-07-02T05:37:32;14.10;99.90
14985;DHT22;7588;62.368;25.902;2023-07-02T05:39:58;14.20;99.90
14985;DHT22;7588;62.368;25.902;2023-07-02T05:42:23;14.40;99.90
14985;DHT22;7588;62.368;25.902;2023-07-02T05:44:50;14.60;99.90
14985;DHT22;7588;62.368;25.902;2023-07-02T05:47:15;14.60;99.90
14985;DHT22;7588;62.368;25.902;2023-07-02T05:49:42;14.70;99.90
14985;DHT22;7588;62.368;25.902;2023-07-02T05:52:08;14.90;99.90
14985;DHT22;7588;62.368;25.902;2023-07-02T05:54:34;15.20;99.90
14985;DHT22;7588;62.368;25.902;2023-07-02T05:56:59;15.40;99.90
14985;DHT22;7588;62.368;25.902;2023-07-02T05:59:25;15.70;99.90
14985;DHT22;7588;62.368;25.902;2023-07-02T06:01:50;15.80;99.90
14985;DHT22;7588;62.368;25.902;2023-07-02T06:04:16;16.10;99.90
14985;DHT22;7588;62.368;25.902;2023-07-02T06:06:42;16.30;99.90
14985;DHT22;7588;62.368;25.902;2023-07-02T06:09:08;16.30;99.90
14985;DHT22;7588;62.368;25.902;2023-07-02T06:11:34;16.10;99.90
14985;DHT22;7588;62.368;25.902;2023-07-02T06:14:00;15.70;99.90
14985;DHT22;7588;62.368;25.902;2023-07-02T06:16:25;15.30;99.90
14985;DHT22;7588;62.368;25.902;2023-07-02T06:18:51;14.90;99.90
14985;DHT22;7588;62.368;25.902;2023-07-02T06:21:17;14.60;99.90
14985;DHT22;7588;62.368;25.902;2023-07-02T06:23:43;14.50;99.90
14985;DHT22;7588;62.368;25.902;2023-07-02T06:26:09;14.40;99.90
14985;DHT22;7588;62.368;25.902;2023-07-02T06:28:35;14.40;99.90
14985;DHT22;7588;62.368;25.902;2023-07-02T06:31:01;14.40;99.90
14985;DHT22;7588;62.368;25.902;2023-07-02T06:33:26;14.40;99.90
14985;DHT22;7588;62.368;25.902;2023-07-02T06:35:52;14.40;99.90
14985;DHT22;7588;62.368;25.902;2023-07-02T06:38:18;14.40;99.90
14985;DHT22;7588;62.368;25.902;2023-07-02T06:40:43;14.60;99.90
14985;DHT22;7588;62.368;25.902;2023-07-02T06:43:09;14.70;99.90
14985;DHT22;7588;62.368;25.902;2023-07-02T06:45:35;14.90;99.90
14985;DHT22;7588;62.368;25.902;2023-07-02T06:48:01;15.10;99.90
14985;DHT22;7588;62.368;25.902;2023-07-02T06:50:26;15.00;99.90
14985;DHT22;7588;62.368;25.902;2023-07-02T06:52:52;15.00;99.90
14985;DHT22;7588;62.368;25.902;2023-07-02T06:55:18;15.00;99.90
14985;DHT22;7588;62.368;25.902;2023-07-02T06:57:44;14.90;99.90
14985;DHT22;7588;62.368;25.902;2023-07-02T07:00:14;15.00;99.90
14985;DHT22;7588;62.368;25.902;2023-07-02T07:02:39;15.10;99.90
14985;DHT22;7588;62.368;25.902;2023-07-02T07:05:05;15.30;99.90
14985;DHT22;7588;62.368;25.902;2023-07-02T07:07:31;15.50;99.90
14985;DHT22;7588;62.368;25.902;2023-07-02T07:09:57;15.40;99.90
14985;DHT22;7588;62.368;25.902;2023-07-02T07:12:23;15.70;99.90
14985;DHT22;7588;62.368;25.902;2023-07-02T07:14:48;15.90;99.90
14985;DHT22;7588;62.368;25.902;2023-07-02T07:17:14;16.20;99.90
14985;DHT22;7588;62.368;25.902;2023-07-02T07:19:40;16.40;99.90
14985;DHT22;7588;62.368;25.902;2023-07-02T07:22:06;16.40;99.90
14985;DHT22;7588;62.368;25.902;2023-07-02T07:24:31;16.40;99.90
14985;DHT22;7588;62.368;25.902;2023-07-02T07:26:57;16.30;99.90
14985;DHT22;7588;62.368;25.902;2023-07-02T07:29:23;16.20;99.90
14985;DHT22;7588;62.368;25.902;2023-07-02T07:31:48;16.10;99.90
14985;DHT22;7588;62.368;25.902;2023-07-02T07:34:14;15.90;99.90
14985;DHT22;7588;62.368;25.902;2023-07-02T07:36:39;15.80;99.90
14985;DHT22;7588;62.368;25.902;2023-07-02T07:39:05;15.50;99.90
14985;DHT22;7588;62.368;25.902;2023-07-02T07:41:31;15.50;99.90
14985;DHT22;7588;62.368;25.902;2023-07-02T07:43:58;15.40;99.90
14985;DHT22;7588;62.368;25.902;2023-07-02T07:46:23;15.30;99.90
14985;DHT22;7588;62.368;25.902;2023-07-02T07:48:49;15.30;99.90
14985;DHT22;7588;62.368;25.902;2023-07-02T07:51:15;15.20;99.90
14985;DHT22;7588;62.368;25.902;2023-07-02T07:53:40;15.10;99.90
14985;DHT22;7588;62.368;25.902;2023-07-02T07:56:06;15.00;99.90
14985;DHT22;7588;62.368;25.902;2023-07-02T07:58:32;15.00;99.90
14985;DHT22;7588;62.368;25.902;2023-07-02T08:00:58;15.00;99.90
14985;DHT22;7588;62.368;25.902;2023-07-02T08:03:23;14.80;99.90
14985;DHT22;7588;62.368;25.902;2023-07-02T08:05:49;14.70;99.90
14985;DHT22;7588;62.368;25.902;2023-07-02T08:08:15;14.70;99.90
14985;DHT22;7588;62.368;25.902;2023-07-02T08:10:40;14.70;99.90
14985;DHT22;7588;62.368;25.902;2023-07-02T08:13:08;14.60;99.90
14985;DHT22;7588;62.368;25.902;2023-07-02T08:15:34;14.60;99.90
14985;DHT22;7588;62.368;25.902;2023-07-02T08:17:59;14.50;99.90
14985;DHT22;7588;62.368;25.902;2023-07-02T08:20:25;14.50;99.90
14985;DHT22;7588;62.368;25.902;2023-07-02T08:22:51;14.50;99.90
14985;DHT22;7588;62.368;25.902;2023-07-02T08:25:18;14.50;99.90
14985;DHT22;7588;62.368;25.902;2023-07-02T08:27:44;14.60;99.90
14985;DHT22;7588;62.368;25.902;2023-07-02T08:30:10;14.50;99.90
14985;DHT22;7588;62.368;25.902;2023-07-02T08:32:36;14.50;99.90
14985;DHT22;7588;62.368;25.902;2023-07-02T08:35:01;14.40;99.90
14985;DHT22;7588;62.368;25.902;2023-07-02T08:37:27;14.40;99.90
14985;DHT22;7588;62.368;25.902;2023-07-02T08:39:53;14.50;99.90
14985;DHT22;7588;62.368;25.902;2023-07-02T08:42:19;14.50;99.90
14985;DHT22;7588;62.368;25.902;2023-07-02T08:44:47;14.60;99.90
14985;DHT22;7588;62.368;25.902;2023-07-02T08:47:14;14.60;99.90
14985;DHT22;7588;62.368;25.902;2023-07-02T08:49:42;14.60;99.90
14985;DHT22;7588;62.368;25.902;2023-07-02T08:52:07;14.60;99.90
14985;DHT22;7588;62.368;25.902;2023-07-02T08:54:33;14.70;99.90
14985;DHT22;7588;62.368;25.902;2023-07-02T08:56:59;14.70;99.90
14985;DHT22;7588;62.368;25.902;2023-07-02T08:59:29;14.70;99.90
14985;DHT22;7588;62.368;25.902;2023-07-02T09:01:55;14.80;99.90
14985;DHT22;7588;62.368;25.902;2023-07-02T09:04:25;14.80;99.90
14985;DHT22;7588;62.368;25.902;2023-07-02T09:07:04;14.80;99.90
14985;DHT22;7588;62.368;25.902;2023-07-02T09:09:31;14.80;99.90
14985;DHT22;7588;62.368;25.902;2023-07-02T09:11:56;14.80;99.90
14985;DHT22;7588;62.368;25.902;2023-07-02T09:14:28;14.90;99.90
14985;DHT22;7588;62.368;25.902;2023-07-02T09:17:05;14.90;99.90
14985;DHT22;7588;62.368;25.902;2023-07-02T09:19:31;14.90;99.90
14985;DHT22;7588;62.368;25.902;2023-07-02T09:21:58;14.80;99.90
14985;DHT22;7588;62.368;25.902;2023-07-02T09:24:29;14.80;99.90
14985;DHT22;7588;62.368;25.902;2023-07-02T09:26:57;14.80;99.90
14985;DHT22;7588;62.368;25.902;2023-07-02T09:29:31;14.70;99.90
14985;DHT22;7588;62.368;25.902;2023-07-02T09:32:01;14.70;99.90
14985;DHT22;7588;62.368;25.902;2023-07-02T09:34:32;14.70;99.90
14985;DHT22;7588;62.368;25.902;2023-07-02T09:36:59;14.70;99.90
14985;DHT22;7588;62.368;25.902;2023-07-02T09:39:30;14.80;99.90
14985;DHT22;7588;62.368;25.902;2023-07-02T09:41:59;14.80;99.90
14985;DHT22;7588;62.368;25.902;2023-07-02T09:44:29;14.70;99.90
14985;DHT22;7588;62.368;25.902;2023-07-02T09:47:17;14.70;99.90
14985;DHT22;7588;62.368;25.902;2023-07-02T09:49:49;14.70;99.90
14985;DHT22;7588;62.368;25.902;2023-07-02T09:52:17;14.70;99.90
14985;DHT22;7588;62.368;25.902;2023-07-02T09:54:44;14.60;99.90
14985;DHT22;7588;62.368;25.902;2023-07-02T09:57:10;14.60;99.90
14985;DHT22;7588;62.368;25.902;2023-07-02T09:59:37;14.50;99.90
14985;DHT22;7588;62.368;25.902;2023-07-02T10:02:03;14.50;99.90
14985;DHT22;7588;62.368;25.902;2023-07-02T10:04:40;14.40;99.90
14985;DHT22;7588;62.368;25.902;2023-07-02T10:07:05;14.30;99.90
14985;DHT22;7588;62.368;25.902;2023-07-02T10:09:44;14.30;99.90
14985;DHT22;7588;62.368;25.902;2023-07-02T10:12:29;14.20;99.90
14985;DHT22;7588;62.368;25.902;2023-07-02T10:14:57;14.20;99.90
14985;DHT22;7588;62.368;25.902;2023-07-02T10:17:33;14.20;99.90
14985;DHT22;7588;62.368;25.902;2023-07-02T10:20:04;14.30;99.90
14985;DHT22;7588;62.368;25.902;2023-07-02T10:22:50;14.40;99.90
14985;DHT22;7588;62.368;25.902;2023-07-02T10:25:27;14.40;99.90
14985;DHT22;7588;62.368;25.902;2023-07-02T10:27:52;14.50;99.90
14985;DHT22;7588;62.368;25.902;2023-07-02T10:30:18;14.60;99.90
14985;DHT22;7588;62.368;25.902;2023-07-02T10:32:44;14.60;99.90
14985;DHT22;7588;62.368;25.902;2023-07-02T10:37:39;14.80;99.90
14985;DHT22;7588;62.368;25.902;2023-07-02T10:40:08;14.70;99.90
14985;DHT22;7588;62.368;25.902;2023-07-02T10:42:48;14.60;99.90
14985;DHT22;7588;62.368;25.902;2023-07-02T10:45:15;14.60;99.90
14985;DHT22;7588;62.368;25.902;2023-07-02T10:47:41;14.50;99.90
14985;DHT22;7588;62.368;25.902;2023-07-02T10:50:20;14.60;99.90
14985;DHT22;7588;62.368;25.902;2023-07-02T10:52:47;14.70;99.90
14985;DHT22;7588;62.368;25.902;2023-07-02T10:55:31;14.70;99.90
14985;DHT22;7588;62.368;25.902;2023-07-02T10:58:07;14.90;99.90
14985;DHT22;7588;62.368;25.902;2023-07-02T11:00:54;14.90;99.90
14985;DHT22;7588;62.368;25.902;2023-07-02T11:03:24;15.00;99.90
14985;DHT22;7588;62.368;25.902;2023-07-02T11:05:51;15.00;99.90
14985;DHT22;7588;62.368;25.902;2023-07-02T11:08:18;15.00;99.90
14985;DHT22;7588;62.368;25.902;2023-07-02T11:10:45;15.10;99.90
14985;DHT22;7588;62.368;25.902;2023-07-02T11:13:15;15.20;99.90
14985;DHT22;7588;62.368;25.902;2023-07-02T11:15:41;15.30;99.90
14985;DHT22;7588;62.368;25.902;2023-07-02T11:18:11;15.30;99.90
14985;DHT22;7588;62.368;25.902;2023-07-02T11:20:38;15.30;99.90
14985;DHT22;7588;62.368;25.902;2023-07-02T11:23:04;15.40;99.90
14985;DHT22;7588;62.368;25.902;2023-07-02T11:25:31;15.40;99.90
14985;DHT22;7588;62.368;25.902;2023-07-02T11:28:04;15.40;99.90
14985;DHT22;7588;62.368;25.902;2023-07-02T11:30:29;15.40;99.90
14985;DHT22;7588;62.368;25.902;2023-07-02T11:32:55;15.40;99.90
14985;DHT22;7588;62.368;25.902;2023-07-02T11:35:22;15.50;99.90
14985;DHT22;7588;62.368;25.902;2023-07-02T11:37:48;15.50;99.90
14985;DHT22;7588;62.368;25.902;2023-07-02T11:40:16;15.40;99.90
14985;DHT22;7588;62.368;25.902;2023-07-02T11:42:42;15.30;99.90
14985;DHT22;7588;62.368;25.902;2023-07-02T11:45:09;15.30;99.90
14985;DHT22;7588;62.368;25.902;2023-07-02T11:47:35;15.20;99.90
14985;DHT22;7588;62.368;25.902;2023-07-02T11:50:01;15.30;99.90
14985;DHT22;7588;62.368;25.902;2023-07-02T11:52:27;15.20;99.90
14985;DHT22;7588;62.368;25.902;2023-07-02T11:54:52;15.20;99.90
14985;DHT22;7588;62.368;25.902;2023-07-02T11:57:19;15.20;99.90
14985;DHT22;7588;62.368;25.902;2023-07-02T11:59:45;15.20;99.90
14985;DHT22;7588;62.368;25.902;2023-07-02T12:02:10;15.20;99.90
14985;DHT22;7588;62.368;25.902;2023-07-02T12:04:36;15.30;99.90
14985;DHT22;7588;62.368;25.902;2023-07-02T12:07:02;15.40;99.90
14985;DHT22;7588;62.368;25.902;2023-07-02T12:09:29;15.30;99.90
14985;DHT22;7588;62.368;25.902;2023-07-02T12:11:55;15.30;99.90
14985;DHT22;7588;62.368;25.902;2023-07-02T12:14:20;15.30;99.90
14985;DHT22;7588;62.368;25.902;2023-07-02T12:16:46;15.30;99.90
14985;DHT22;7588;62.368;25.902;2023-07-02T12:19:12;15.40;99.90
14985;DHT22;7588;62.368;25.902;2023-07-02T12:21:37;15.30;99.90
14985;DHT22;7588;62.368;25.902;2023-07-02T12:24:03;15.10;99.90
14985;DHT22;7588;62.368;25.902;2023-07-02T12:26:34;15.20;99.90
14985;DHT22;7588;62.368;25.902;2023-07-02T12:29:00;15.00;99.90
14985;DHT22;7588;62.368;25.902;2023-07-02T12:31:25;15.00;99.90
14985;DHT22;7588;62.368;25.902;2023-07-02T12:33:51;15.00;99.90
14985;DHT22;7588;62.368;25.902;2023-07-02T12:36:17;15.10;99.90
14985;DHT22;7588;62.368;25.902;2023-07-02T12:38:42;15.20;99.90
14985;DHT22;7588;62.368;25.902;2023-07-02T12:41:08;15.30;99.90
14985;DHT22;7588;62.368;25.902;2023-07-02T12:43:34;15.40;99.90
14985;DHT22;7588;62.368;25.902;2023-07-02T12:45:59;15.40;99.90
14985;DHT22;7588;62.368;25.902;2023-07-02T12:48:25;15.50;99.90
14985;DHT22;7588;62.368;25.902;2023-07-02T12:50:55;15.60;99.90
14985;DHT22;7588;62.368;25.902;2023-07-02T12:53:21;15.70;99.90
14985;DHT22;7588;62.368;25.902;2023-07-02T12:55:47;15.80;99.90
14985;DHT22;7588;62.368;25.902;2023-07-02T12:58:13;15.90;99.90
14985;DHT22;7588;62.368;25.902;2023-07-02T13:00:38;15.90;99.90
14985;DHT22;7588;62.368;25.902;2023-07-02T13:03:04;15.90;99.90
14985;DHT22;7588;62.368;25.902;2023-07-02T13:05:30;15.90;99.90
14985;DHT22;7588;62.368;25.902;2023-07-02T13:07:56;15.80;99.90
14985;DHT22;7588;62.368;25.902;2023-07-02T13:10:21;15.80;99.90
14985;DHT22;7588;62.368;25.902;2023-07-02T13:12:47;15.80;99.90
14985;DHT22;7588;62.368;25.902;2023-07-02T13:15:13;15.80;99.90
14985;DHT22;7588;62.368;25.902;2023-07-02T13:17:38;15.70;99.90
14985;DHT22;7588;62.368;25.902;2023-07-02T13:20:07;15.80;99.90
14985;DHT22;7588;62.368;25.902;2023-07-02T13:22:32;15.90;99.90
14985;DHT22;7588;62.368;25.902;2023-07-02T13:24:58;15.90;99.90
14985;DHT22;7588;62.368;25.902;2023-07-02T13:27:24;15.90;99.90
14985;DHT22;7588;62.368;25.902;2023-07-02T13:29:49;15.90;99.90
14985;DHT22;7588;62.368;25.902;2023-07-02T13:32:15;15.80;99.90
14985;DHT22;7588;62.368;25.902;2023-07-02T13:34:41;15.70;99.90
14985;DHT22;7588;62.368;25.902;2023-07-02T13:37:09;15.80;99.90
14985;DHT22;7588;62.368;25.902;2023-07-02T13:39:34;15.90;99.90
14985;DHT22;7588;62.368;25.902;2023-07-02T13:42:00;16.00;99.90
14985;DHT22;7588;62.368;25.902;2023-07-02T13:44:26;16.00;99.90
14985;DHT22;7588;62.368;25.902;2023-07-02T13:46:52;16.00;99.90
14985;DHT22;7588;62.368;25.902;2023-07-02T13:49:18;16.00;99.90
14985;DHT22;7588;62.368;25.902;2023-07-02T13:51:45;15.80;99.90
14985;DHT22;7588;62.368;25.902;2023-07-02T13:54:12;15.70;99.90
14985;DHT22;7588;62.368;25.902;2023-07-02T13:56:40;15.60;99.90
14985;DHT22;7588;62.368;25.902;2023-07-02T13:59:05;15.50;99.90
14985;DHT22;7588;62.368;25.902;2023-07-02T14:01:32;15.40;99.90
14985;DHT22;7588;62.368;25.902;2023-07-02T14:03:58;15.40;99.90
14985;DHT22;7588;62.368;25.902;2023-07-02T14:06:23;15.30;99.90
14985;DHT22;7588;62.368;25.902;2023-07-02T14:08:49;15.20;99.90
14985;DHT22;7588;62.368;25.902;2023-07-02T14:11:15;15.10;99.90
14985;DHT22;7588;62.368;25.902;2023-07-02T14:13:41;15.00;99.90
14985;DHT22;7588;62.368;25.902;2023-07-02T14:16:06;15.00;99.90
14985;DHT22;7588;62.368;25.902;2023-07-02T14:18:32;15.00;99.90
14985;DHT22;7588;62.368;25.902;2023-07-02T14:20:58;15.00;99.90
14985;DHT22;7588;62.368;25.902;2023-07-02T14:23:23;15.10;99.90
14985;DHT22;7588;62.368;25.902;2023-07-02T14:25:49;15.00;99.90
14985;DHT22;7588;62.368;25.902;2023-07-02T14:28:14;15.00;99.90
14985;DHT22;7588;62.368;25.902;2023-07-02T14:30:40;15.00;99.90
14985;DHT22;7588;62.368;25.902;2023-07-02T14:33:08;15.10;99.90
14985;DHT22;7588;62.368;25.902;2023-07-02T14:35:34;15.10;99.90
14985;DHT22;7588;62.368;25.902;2023-07-02T14:38:01;15.10;99.90
14985;DHT22;7588;62.368;25.902;2023-07-02T14:40:26;15.20;99.90
14985;DHT22;7588;62.368;25.902;2023-07-02T14:42:52;15.10;99.90
14985;DHT22;7588;62.368;25.902;2023-07-02T14:45:18;15.10;99.90
14985;DHT22;7588;62.368;25.902;2023-07-02T14:47:43;15.10;99.90
14985;DHT22;7588;62.368;25.902;2023-07-02T14:50:09;15.20;99.90
14985;DHT22;7588;62.368;25.902;2023-07-02T14:52:35;15.20;99.90
14985;DHT22;7588;62.368;25.902;2023-07-02T14:55:01;15.20;99.90
14985;DHT22;7588;62.368;25.902;2023-07-02T14:57:27;15.30;99.90
14985;DHT22;7588;62.368;25.902;2023-07-02T14:59:53;15.30;99.90
14985;DHT22;7588;62.368;25.902;2023-07-02T15:02:19;15.30;99.90
14985;DHT22;7588;62.368;25.902;2023-07-02T15:04:45;15.30;99.90
14985;DHT22;7588;62.368;25.902;2023-07-02T15:07:11;15.30;99.90
14985;DHT22;7588;62.368;25.902;2023-07-02T15:09:37;15.30;99.90
14985;DHT22;7588;62.368;25.902;2023-07-02T15:12:02;15.30;99.90
14985;DHT22;7588;62.368;25.902;2023-07-02T15:14:28;15.30;99.90
14985;DHT22;7588;62.368;25.902;2023-07-02T15:16:54;15.30;99.90
14985;DHT22;7588;62.368;25.902;2023-07-02T15:19:20;15.30;99.90
14985;DHT22;7588;62.368;25.902;2023-07-02T15:21:46;15.30;99.90
14985;DHT22;7588;62.368;25.902;2023-07-02T15:24:12;15.20;99.90
14985;DHT22;7588;62.368;25.902;2023-07-02T15:26:38;15.20;99.90
14985;DHT22;7588;62.368;25.902;2023-07-02T15:29:05;15.20;99.90
14985;DHT22;7588;62.368;25.902;2023-07-02T15:31:31;15.20;99.90
14985;DHT22;7588;62.368;25.902;2023-07-02T15:33:57;15.20;99.90